Time;durP1;ratioP1;P1;durP2;ratioP2;P2;SDS_P1;SDS_P2;PMS_P1;PMS_P2;Temp;Humidity;BMP_temperature;BMP_pressure;BME280_temperature;BME280_humidity;BME280_pressure;Samples;Min_cycle;Max_cycle;Signal;HPM_P1;HPM_P2
2023/12/25 00:02:20;;;;;;;8.37;6.60;;;;;;;;;;5015700;28;20018;-90
2023/12/25 00:04:46;;;;;;;8.40;6.50;;;;;;;;;;5022441;28;20696;-90
2023/12/25 00:07:11;;;;;;;6.70;5.77;;;;;;;;;;5013387;28;20018;-90
2023/12/25 00:09:36;;;;;;;6.63;5.40;;;;;;;;;;5023807;28;20092;-90
2023/12/25 00:12:01;;;;;;;6.43;5.27;;;;;;;;;;5036405;28;20025;-89
2023/12/25 00:14:27;;;;;;;5.03;4.03;;;;;;;;;;5036772;28;20032;-90
2023/12/25 00:16:52;;;;;;;6.53;4.80;;;;;;;;;;5043877;28;20105;-88
2023/12/25 00:19:17;;;;;;;6.13;3.93;;;;;;;;;;5037464;28;20542;-90
2023/12/25 00:21:42;;;;;;;4.80;3.60;;;;;;;;;;5026392;28;20429;-90
2023/12/25 00:24:07;;;;;;;4.67;3.17;;;;;;;;;;5032029;28;20500;-90
2023/12/25 00:26:33;;;;;;;6.73;3.27;;;;;;;;;;5030996;28;20021;-89
2023/12/25 00:28:58;;;;;;;7.00;4.00;;;;;;;;;;5029403;28;20117;-90
2023/12/25 00:31:23;;;;;;;4.47;4.07;;;;;;;;;;5030317;28;20473;-90
2023/12/25 00:33:48;;;;;;;5.27;3.73;;;;;;;;;;5030386;28;20036;-89
2023/12/25 00:36:13;;;;;;;6.80;4.17;;;;;;;;;;5012605;28;20029;-90
2023/12/25 00:38:39;;;;;;;7.77;4.10;;;;;;;;;;5017098;28;20470;-88
2023/12/25 00:41:04;;;;;;;8.77;4.47;;;;;;;;;;5010782;28;20021;-90
2023/12/25 00:43:29;;;;;;;6.60;4.20;;;;;;;;;;5014339;28;20127;-88
2023/12/25 00:45:54;;;;;;;5.90;4.20;;;;;;;;;;5030379;28;20025;-88
2023/12/25 00:48:20;;;;;;;6.13;4.40;;;;;;;;;;5030342;28;20013;-90
2023/12/25 00:50:45;;;;;;;6.43;4.90;;;;;;;;;;5030934;28;20531;-90
2023/12/25 00:53:10;;;;;;;5.43;4.30;;;;;;;;;;5013707;28;20029;-90
2023/12/25 00:55:35;;;;;;;7.70;4.27;;;;;;;;;;5012664;28;20018;-91
2023/12/25 00:58:01;;;;;;;5.77;4.90;;;;;;;;;;5011254;28;20018;-88
2023/12/25 01:00:26;;;;;;;10.30;5.90;;;;;;;;;;5010324;28;20026;-90
2023/12/25 01:02:51;;;;;;;7.53;5.40;;;;;;;;;;5012161;28;20046;-91
2023/12/25 01:05:17;;;;;;;9.47;5.30;;;;;;;;;;5014032;28;20034;-89
2023/12/25 01:07:42;;;;;;;6.40;5.47;;;;;;;;;;5015340;28;20017;-89
2023/12/25 01:10:07;;;;;;;7.07;5.83;;;;;;;;;;5026874;28;20021;-89
2023/12/25 01:12:33;;;;;;;8.10;5.53;;;;;;;;;;5014670;28;20123;-88
2023/12/25 01:14:58;;;;;;;8.50;5.93;;;;;;;;;;5014118;28;20026;-89
2023/12/25 01:17:24;;;;;;;8.37;5.77;;;;;;;;;;5027779;28;20029;-89
2023/12/25 01:19:49;;;;;;;9.32;5.68;;;;;;;;;;5033374;28;20064;-88
2023/12/25 01:22:14;;;;;;;6.77;5.40;;;;;;;;;;5034026;28;20113;-88
2023/12/25 01:24:39;;;;;;;7.67;5.50;;;;;;;;;;5023097;28;20465;-89
2023/12/25 01:27:04;;;;;;;8.43;5.50;;;;;;;;;;5027191;28;20064;-89
2023/12/25 01:29:30;;;;;;;8.60;5.70;;;;;;;;;;5026388;28;20025;-89
2023/12/25 01:31:55;;;;;;;11.83;6.63;;;;;;;;;;5033743;28;20076;-89
2023/12/25 01:34:20;;;;;;;7.00;5.30;;;;;;;;;;5033545;28;20048;-89
2023/12/25 01:36:45;;;;;;;7.30;5.33;;;;;;;;;;5034396;28;20032;-89
2023/12/25 01:39:12;;;;;;;8.37;6.17;;;;;;;;;;5016369;28;20370;-89
2023/12/25 01:41:37;;;;;;;8.70;5.63;;;;;;;;;;5013497;28;20053;-88
2023/12/25 01:44:03;;;;;;;8.00;5.27;;;;;;;;;;5017609;28;20064;-89
2023/12/25 01:46:28;;;;;;;11.03;5.40;;;;;;;;;;5027354;28;20030;-89
2023/12/25 01:48:53;;;;;;;9.73;6.47;;;;;;;;;;5018808;28;20063;-89
2023/12/25 01:51:20;;;;;;;12.57;7.28;;;;;;;;;;5013510;28;20450;-90
2023/12/25 01:53:46;;;;;;;11.93;6.50;;;;;;;;;;5013955;28;20029;-89
2023/12/25 01:56:11;;;;;;;9.23;5.87;;;;;;;;;;5014359;28;20132;-90
2023/12/25 01:58:36;;;;;;;9.17;6.40;;;;;;;;;;5030647;28;20391;-89
2023/12/25 02:01:01;;;;;;;14.40;7.40;;;;;;;;;;5031478;28;20136;-90
2023/12/25 02:03:26;;;;;;;10.90;7.20;;;;;;;;;;5024899;28;20380;-90
2023/12/25 02:05:52;;;;;;;11.17;6.97;;;;;;;;;;5034008;28;20029;-90
2023/12/25 02:08:17;;;;;;;12.90;6.83;;;;;;;;;;5032571;28;20044;-89
2023/12/25 02:10:42;;;;;;;11.60;6.83;;;;;;;;;;5027258;28;20022;-89
2023/12/25 02:13:08;;;;;;;10.53;7.27;;;;;;;;;;5021659;28;20470;-90
2023/12/25 02:15:33;;;;;;;11.93;6.50;;;;;;;;;;5023582;28;20010;-89
2023/12/25 02:17:59;;;;;;;11.90;7.70;;;;;;;;;;5024302;28;20029;-89
2023/12/25 02:20:24;;;;;;;11.05;6.70;;;;;;;;;;5034595;28;20070;-89
2023/12/25 02:22:50;;;;;;;9.87;6.30;;;;;;;;;;5019453;28;20022;-89
2023/12/25 02:25:24;;;;;;;10.13;6.78;;;;;;;;;;5017822;28;20516;-89
2023/12/25 02:27:49;;;;;;;12.97;8.20;;;;;;;;;;5016632;28;20389;-89
2023/12/25 02:30:15;;;;;;;9.73;7.97;;;;;;;;;;5024458;28;20277;-89
2023/12/25 02:32:41;;;;;;;13.73;8.83;;;;;;;;;;5013892;28;20264;-89
2023/12/25 02:35:06;;;;;;;11.75;8.32;;;;;;;;;;5026244;28;20017;-89
2023/12/25 02:37:31;;;;;;;13.53;8.10;;;;;;;;;;5017970;28;20482;-90
2023/12/25 02:39:56;;;;;;;10.73;7.37;;;;;;;;;;5026519;28;20064;-90
2023/12/25 02:42:22;;;;;;;10.90;7.03;;;;;;;;;;5021876;28;20052;-89
2023/12/25 02:44:47;;;;;;;11.27;7.87;;;;;;;;;;5023638;28;20469;-89
2023/12/25 02:47:12;;;;;;;11.07;7.90;;;;;;;;;;5023273;28;20097;-90
2023/12/25 02:49:37;;;;;;;11.50;6.70;;;;;;;;;;5032830;28;20033;-89
2023/12/25 02:52:02;;;;;;;11.93;7.07;;;;;;;;;;5011298;28;20382;-89
2023/12/25 02:54:28;;;;;;;11.83;6.90;;;;;;;;;;5015913;28;20117;-89
2023/12/25 02:56:53;;;;;;;11.30;7.30;;;;;;;;;;5023282;28;20056;-88
2023/12/25 02:59:18;;;;;;;9.83;7.97;;;;;;;;;;5013912;28;20486;-88
2023/12/25 03:01:43;;;;;;;9.77;7.60;;;;;;;;;;5011340;28;20022;-88
2023/12/25 03:04:08;;;;;;;10.20;7.37;;;;;;;;;;5015953;28;20036;-88
2023/12/25 03:06:34;;;;;;;10.03;7.17;;;;;;;;;;5018325;28;20280;-89
2023/12/25 03:08:59;;;;;;;9.73;7.00;;;;;;;;;;5028763;28;20466;-88
2023/12/25 03:11:24;;;;;;;8.87;7.23;;;;;;;;;;5023885;28;20029;-89
2023/12/25 03:13:49;;;;;;;9.63;7.50;;;;;;;;;;5014442;28;20117;-88
2023/12/25 03:16:14;;;;;;;9.77;7.10;;;;;;;;;;5018311;28;20112;-88
2023/12/25 03:18:40;;;;;;;9.43;6.97;;;;;;;;;;5023959;28;20045;-89
2023/12/25 03:21:05;;;;;;;8.13;6.67;;;;;;;;;;5024699;28;20473;-89
2023/12/25 03:23:30;;;;;;;8.27;6.80;;;;;;;;;;5024854;28;20025;-88
2023/12/25 03:25:56;;;;;;;9.30;6.93;;;;;;;;;;5012054;28;20046;-89
2023/12/25 03:28:23;;;;;;;8.68;6.50;;;;;;;;;;5032920;28;20032;-89
2023/12/25 03:30:48;;;;;;;7.15;6.38;;;;;;;;;;5029755;28;20123;-89
2023/12/25 03:33:13;;;;;;;8.77;5.97;;;;;;;;;;5028245;28;20021;-89
2023/12/25 03:35:39;;;;;;;8.87;6.87;;;;;;;;;;5018417;28;20133;-89
2023/12/25 03:38:04;;;;;;;9.37;6.50;;;;;;;;;;5025414;28;20075;-86
2023/12/25 03:40:29;;;;;;;9.23;6.80;;;;;;;;;;4996217;28;20063;-87
2023/12/25 03:42:54;;;;;;;8.97;6.93;;;;;;;;;;5016419;28;20083;-89
2023/12/25 03:45:20;;;;;;;9.50;6.13;;;;;;;;;;5021994;28;20056;-89
2023/12/25 03:47:45;;;;;;;9.13;6.40;;;;;;;;;;5015781;28;20018;-89
2023/12/25 03:50:10;;;;;;;9.13;6.77;;;;;;;;;;5028719;28;20024;-90
2023/12/25 03:52:35;;;;;;;9.83;6.90;;;;;;;;;;5026578;28;20091;-89
2023/12/25 03:55:01;;;;;;;11.77;7.10;;;;;;;;;;5029455;28;20017;-89
2023/12/25 03:57:26;;;;;;;10.60;7.33;;;;;;;;;;5030756;28;20524;-89
2023/12/25 03:59:51;;;;;;;8.80;6.53;;;;;;;;;;5031171;28;20219;-89
2023/12/25 04:02:16;;;;;;;9.87;6.73;;;;;;;;;;5034905;28;20021;-88
2023/12/25 04:04:41;;;;;;;9.13;6.57;;;;;;;;;;5033110;28;20025;-89
2023/12/25 04:07:07;;;;;;;8.23;6.27;;;;;;;;;;5016657;28;20022;-89
2023/12/25 04:09:32;;;;;;;9.25;6.20;;;;;;;;;;5010679;28;20017;-89
2023/12/25 04:11:57;;;;;;;7.37;5.60;;;;;;;;;;5025923;28;20116;-89
2023/12/25 04:14:22;;;;;;;6.40;5.33;;;;;;;;;;5029478;28;20032;-89
2023/12/25 04:16:47;;;;;;;8.80;5.47;;;;;;;;;;5028896;28;20079;-89
2023/12/25 04:19:13;;;;;;;7.60;5.50;;;;;;;;;;5029226;28;20114;-89
2023/12/25 04:21:38;;;;;;;7.33;4.63;;;;;;;;;;5028494;28;20018;-88
2023/12/25 04:24:04;;;;;;;8.37;5.13;;;;;;;;;;5010664;28;20481;-89
2023/12/25 04:26:29;;;;;;;5.47;4.87;;;;;;;;;;5014151;28;20034;-88
2023/12/25 04:28:54;;;;;;;8.50;5.40;;;;;;;;;;5010250;28;20280;-89
2023/12/25 04:31:19;;;;;;;6.30;5.43;;;;;;;;;;5010320;28;20018;-89
2023/12/25 04:33:45;;;;;;;6.13;5.53;;;;;;;;;;4997960;28;20128;-89
2023/12/25 04:36:11;;;;;;;8.00;4.87;;;;;;;;;;5010501;28;20320;-89
2023/12/25 04:38:36;;;;;;;10.60;5.20;;;;;;;;;;5010743;28;20090;-90
2023/12/25 04:41:02;;;;;;;5.63;4.60;;;;;;;;;;5009949;28;20033;-89
2023/12/25 04:43:27;;;;;;;6.38;4.72;;;;;;;;;;5013637;28;20079;-89
2023/12/25 04:45:52;;;;;;;6.73;4.37;;;;;;;;;;4992770;28;20097;-89
2023/12/25 04:48:18;;;;;;;5.03;4.00;;;;;;;;;;5010121;28;20097;-89
2023/12/25 04:50:43;;;;;;;5.20;4.53;;;;;;;;;;5010024;28;20049;-90
2023/12/25 04:53:08;;;;;;;5.68;4.53;;;;;;;;;;5022033;28;20607;-90
2023/12/25 04:55:34;;;;;;;5.10;4.03;;;;;;;;;;5019467;28;20076;-89
2023/12/25 04:57:59;;;;;;;4.57;4.17;;;;;;;;;;4992285;28;20017;-89
2023/12/25 05:00:24;;;;;;;5.30;4.27;;;;;;;;;;5015486;28;20033;-89
2023/12/25 05:02:49;;;;;;;5.40;4.30;;;;;;;;;;5027773;28;20022;-89
2023/12/25 05:05:15;;;;;;;4.70;4.20;;;;;;;;;;5010879;28;20029;-90
2023/12/25 05:07:40;;;;;;;5.40;4.27;;;;;;;;;;5010139;28;20427;-89
2023/12/25 05:10:05;;;;;;;5.30;4.10;;;;;;;;;;5009759;28;20704;-89
2023/12/25 05:12:31;;;;;;;5.83;4.30;;;;;;;;;;5011285;28;20030;-90
2023/12/25 05:14:56;;;;;;;7.50;4.33;;;;;;;;;;5011709;28;20311;-89
2023/12/25 05:17:21;;;;;;;4.77;3.43;;;;;;;;;;5013387;28;20034;-90
2023/12/25 05:19:46;;;;;;;5.17;3.97;;;;;;;;;;5010356;28;20084;-89
2023/12/25 05:22:12;;;;;;;4.17;3.27;;;;;;;;;;5010352;28;20034;-90
2023/12/25 05:24:37;;;;;;;3.70;3.10;;;;;;;;;;5008477;28;20029;-89
2023/12/25 05:27:03;;;;;;;4.47;3.07;;;;;;;;;;5003180;28;20018;-90
2023/12/25 05:29:29;;;;;;;4.35;3.05;;;;;;;;;;4995275;28;20053;-91
2023/12/25 05:31:54;;;;;;;3.13;2.50;;;;;;;;;;5012251;28;20474;-89
2023/12/25 05:34:20;;;;;;;5.03;2.47;;;;;;;;;;5026785;28;20030;-89
2023/12/25 05:36:45;;;;;;;2.80;2.53;;;;;;;;;;5033590;28;20045;-89
2023/12/25 05:39:10;;;;;;;3.23;2.60;;;;;;;;;;5035092;28;20025;-89
2023/12/25 05:41:36;;;;;;;2.57;2.10;;;;;;;;;;5015638;28;20079;-89
2023/12/25 05:44:01;;;;;;;2.93;2.20;;;;;;;;;;5031390;28;20028;-89
2023/12/25 05:46:26;;;;;;;3.30;2.37;;;;;;;;;;5030954;28;20030;-89
2023/12/25 05:48:52;;;;;;;5.90;2.60;;;;;;;;;;5029994;28;20087;-89
2023/12/25 05:51:17;;;;;;;5.05;3.10;;;;;;;;;;5009525;28;20104;-88
2023/12/25 05:53:43;;;;;;;3.53;2.70;;;;;;;;;;5012158;28;20031;-90
2023/12/25 05:56:08;;;;;;;3.92;3.00;;;;;;;;;;5030258;28;20048;-89
2023/12/25 05:58:33;;;;;;;4.77;3.17;;;;;;;;;;5024925;28;20034;-89
2023/12/25 06:00:59;;;;;;;4.10;2.77;;;;;;;;;;5018628;28;20021;-89
2023/12/25 06:03:24;;;;;;;3.40;2.80;;;;;;;;;;5026273;28;20107;-87
2023/12/25 06:05:50;;;;;;;3.83;3.00;;;;;;;;;;5021028;28;20030;-88
2023/12/25 06:08:15;;;;;;;5.20;2.90;;;;;;;;;;5017286;28;20022;-88
2023/12/25 06:10:40;;;;;;;3.47;2.83;;;;;;;;;;5018451;28;20033;-89
2023/12/25 06:13:06;;;;;;;4.63;2.90;;;;;;;;;;5031849;28;20060;-88
2023/12/25 06:15:31;;;;;;;4.27;3.40;;;;;;;;;;5020322;28;20018;-91
2023/12/25 06:20:31;;;;;;;4.53;3.42;;;;;;;;;;5569919;22;20045;-89
2023/12/25 06:22:56;;;;;;;5.33;3.43;;;;;;;;;;5021581;28;20017;-89
2023/12/25 06:25:21;;;;;;;5.43;3.60;;;;;;;;;;5033506;28;20033;-89
2023/12/25 06:27:47;;;;;;;4.97;3.70;;;;;;;;;;5031284;28;20018;-89
2023/12/25 06:30:12;;;;;;;6.10;3.43;;;;;;;;;;5023437;28;20084;-89
2023/12/25 06:32:39;;;;;;;4.87;3.10;;;;;;;;;;4995968;28;20026;-91
2023/12/25 06:35:06;;;;;;;5.03;3.63;;;;;;;;;;4995019;28;20289;-90
2023/12/25 06:37:31;;;;;;;4.82;3.50;;;;;;;;;;4997734;28;20023;-88
2023/12/25 06:39:56;;;;;;;9.03;3.70;;;;;;;;;;4992365;28;20129;-87
2023/12/25 06:42:21;;;;;;;6.00;3.73;;;;;;;;;;4992491;28;20022;-90
2023/12/25 06:44:47;;;;;;;5.00;3.80;;;;;;;;;;4975188;28;20050;-90
2023/12/25 06:47:12;;;;;;;5.63;4.10;;;;;;;;;;4992193;28;20383;-88
2023/12/25 06:49:38;;;;;;;3.87;3.30;;;;;;;;;;4992785;28;20033;-90
2023/12/25 06:52:03;;;;;;;4.03;3.53;;;;;;;;;;4990482;28;20022;-88
2023/12/25 06:54:28;;;;;;;3.60;3.30;;;;;;;;;;4974914;28;20061;-88
2023/12/25 06:56:53;;;;;;;5.93;3.70;;;;;;;;;;4992017;28;20016;-87
2023/12/25 06:59:19;;;;;;;4.43;3.63;;;;;;;;;;4991043;28;20376;-88
2023/12/25 07:01:45;;;;;;;5.00;4.47;;;;;;;;;;4991647;28;20042;-87
2023/12/25 07:04:11;;;;;;;7.43;4.53;;;;;;;;;;4992098;28;20446;-87
2023/12/25 07:06:36;;;;;;;5.90;4.32;;;;;;;;;;4991020;28;20029;-88
2023/12/25 07:09:01;;;;;;;9.97;5.10;;;;;;;;;;4991179;28;20027;-87
2023/12/25 07:11:27;;;;;;;6.47;5.30;;;;;;;;;;4991348;28;20019;-89
2023/12/25 07:13:52;;;;;;;7.53;5.20;;;;;;;;;;4991346;28;20034;-87
2023/12/25 07:16:21;;;;;;;7.10;5.00;;;;;;;;;;4992089;28;20022;-88
2023/12/25 07:18:47;;;;;;;6.28;5.15;;;;;;;;;;4972421;28;20031;-88
2023/12/25 07:21:12;;;;;;;6.87;5.70;;;;;;;;;;4970764;28;20029;-88
2023/12/25 07:23:38;;;;;;;7.23;6.43;;;;;;;;;;4991504;28;20034;-90
2023/12/25 07:26:03;;;;;;;8.87;6.40;;;;;;;;;;4991874;28;20072;-90
2023/12/25 07:28:28;;;;;;;8.03;6.13;;;;;;;;;;4991736;28;20235;-90
2023/12/25 07:30:53;;;;;;;7.57;6.20;;;;;;;;;;4991451;28;20114;-90
2023/12/25 07:33:18;;;;;;;9.73;6.97;;;;;;;;;;4990779;28;20105;-88
2023/12/25 07:35:44;;;;;;;9.33;6.67;;;;;;;;;;4991643;28;20281;-88
2023/12/25 07:38:09;;;;;;;7.53;6.37;;;;;;;;;;4991557;28;20106;-90
2023/12/25 07:40:35;;;;;;;9.80;7.60;;;;;;;;;;4991789;28;20386;-91
2023/12/25 07:43:01;;;;;;;8.73;7.43;;;;;;;;;;4990136;28;20535;-90
2023/12/25 07:45:26;;;;;;;9.25;7.57;;;;;;;;;;4990299;28;20030;-89
2023/12/25 07:47:51;;;;;;;9.00;7.57;;;;;;;;;;4990877;28;20140;-89
2023/12/25 07:50:16;;;;;;;9.83;7.07;;;;;;;;;;4991115;28;20058;-94
2023/12/25 07:52:42;;;;;;;10.10;6.97;;;;;;;;;;4989229;28;20077;-89
2023/12/25 07:55:07;;;;;;;9.03;6.47;;;;;;;;;;4989652;28;20080;-86
2023/12/25 07:57:32;;;;;;;8.32;6.55;;;;;;;;;;4990361;28;20034;-90
2023/12/25 07:59:57;;;;;;;8.03;5.73;;;;;;;;;;4991945;28;20069;-90
2023/12/25 08:02:24;;;;;;;8.60;6.40;;;;;;;;;;4990271;28;20053;-88
2023/12/25 08:04:49;;;;;;;7.30;5.63;;;;;;;;;;4989694;28;20026;-86
2023/12/25 08:07:14;;;;;;;9.30;5.60;;;;;;;;;;4991430;28;20474;-87
2023/12/25 08:09:39;;;;;;;6.07;4.80;;;;;;;;;;4996833;28;20030;-88
2023/12/25 08:12:05;;;;;;;6.10;5.30;;;;;;;;;;4991240;28;20124;-88
2023/12/25 08:14:30;;;;;;;7.70;5.60;;;;;;;;;;4992866;28;20092;-91
2023/12/25 08:16:55;;;;;;;6.77;4.97;;;;;;;;;;4991551;28;20014;-88
2023/12/25 08:19:20;;;;;;;3.30;2.77;;;;;;;;;;4987941;28;20041;-87
2023/12/25 08:21:46;;;;;;;1.80;1.27;;;;;;;;;;4987448;28;20104;-85
2023/12/25 08:24:11;;;;;;;1.03;0.70;;;;;;;;;;4989005;28;20056;-88
2023/12/25 08:26:36;;;;;;;0.60;0.53;;;;;;;;;;4988005;28;20018;-86
2023/12/25 08:29:01;;;;;;;0.55;0.55;;;;;;;;;;4988205;28;20098;-88
2023/12/25 08:31:26;;;;;;;0.87;0.70;;;;;;;;;;4989937;28;20421;-86
2023/12/25 08:33:52;;;;;;;1.43;0.60;;;;;;;;;;4989321;28;20014;-87
2023/12/25 08:36:17;;;;;;;0.50;0.40;;;;;;;;;;4989277;28;20105;-87
2023/12/25 08:38:42;;;;;;;1.33;0.83;;;;;;;;;;4972923;28;20070;-86
2023/12/25 08:41:07;;;;;;;2.17;0.40;;;;;;;;;;4989948;28;20029;-87
2023/12/25 08:43:32;;;;;;;5.43;0.50;;;;;;;;;;4988874;28;20526;-85
2023/12/25 08:45:58;;;;;;;0.43;0.33;;;;;;;;;;4987916;28;20010;-85
2023/12/25 08:48:23;;;;;;;0.67;0.40;;;;;;;;;;4990240;28;20018;-85
2023/12/25 08:50:48;;;;;;;0.80;0.50;;;;;;;;;;4989893;28;20029;-86
2023/12/25 08:53:14;;;;;;;1.03;0.50;;;;;;;;;;4989253;28;20022;-85
2023/12/25 08:55:39;;;;;;;0.93;0.30;;;;;;;;;;4989869;28;20030;-86
2023/12/25 08:58:04;;;;;;;0.83;0.40;;;;;;;;;;4985621;28;20476;-86
2023/12/25 09:00:30;;;;;;;0.68;0.55;;;;;;;;;;4972463;28;20076;-85
2023/12/25 09:02:55;;;;;;;1.33;0.70;;;;;;;;;;4990406;28;20497;-85
2023/12/25 09:05:21;;;;;;;1.87;0.50;;;;;;;;;;4990358;28;20113;-86
2023/12/25 09:07:46;;;;;;;1.17;0.53;;;;;;;;;;4972601;28;20019;-86
2023/12/25 09:10:11;;;;;;;1.03;0.63;;;;;;;;;;4988894;28;20448;-86
2023/12/25 09:12:37;;;;;;;1.00;0.60;;;;;;;;;;4988807;28;20033;-86
2023/12/25 09:15:04;;;;;;;2.80;0.80;;;;;;;;;;4986884;28;20053;-87
2023/12/25 09:17:29;;;;;;;0.82;0.80;;;;;;;;;;4990079;28;20022;-87
2023/12/25 09:19:54;;;;;;;1.43;0.93;;;;;;;;;;4987293;28;20532;-86
2023/12/25 09:22:23;;;;;;;4.00;1.60;;;;;;;;;;4990047;28;20107;-86
2023/12/25 09:24:48;;;;;;;4.18;0.80;;;;;;;;;;4990557;28;20500;-86
2023/12/25 09:27:13;;;;;;;2.00;0.97;;;;;;;;;;4988866;28;20022;-88
2023/12/25 09:29:39;;;;;;;1.73;0.97;;;;;;;;;;4982346;28;20050;-88
2023/12/25 09:32:04;;;;;;;3.63;1.70;;;;;;;;;;4986100;28;20483;-87
2023/12/25 09:34:29;;;;;;;2.47;1.70;;;;;;;;;;4992866;28;20030;-87
2023/12/25 09:36:56;;;;;;;4.60;2.10;;;;;;;;;;4991544;28;20024;-85
2023/12/25 09:39:21;;;;;;;3.60;2.40;;;;;;;;;;4989428;28;20038;-88
2023/12/25 09:41:46;;;;;;;5.13;2.60;;;;;;;;;;4992317;28;20468;-87
2023/12/25 09:44:12;;;;;;;5.67;3.27;;;;;;;;;;4990845;28;20038;-87
2023/12/25 09:46:38;;;;;;;4.10;2.90;;;;;;;;;;4983313;28;20038;-87
2023/12/25 09:49:03;;;;;;;4.50;1.70;;;;;;;;;;4990678;28;20037;-87
2023/12/25 09:51:32;;;;;;;5.20;1.23;;;;;;;;;;4988583;28;20045;-88
2023/12/25 09:53:58;;;;;;;4.07;0.80;;;;;;;;;;4993220;28;20475;-85
2023/12/25 09:56:23;;;;;;;1.17;0.80;;;;;;;;;;4992503;28;20050;-85
2023/12/25 09:58:48;;;;;;;1.58;1.05;;;;;;;;;;4995438;28;20587;-86
2023/12/25 10:01:14;;;;;;;1.40;0.80;;;;;;;;;;4990704;28;20030;-88
2023/12/25 10:03:44;;;;;;;0.70;0.70;;;;;;;;;;4991111;28;20011;-88
2023/12/25 10:06:09;;;;;;;1.20;0.60;;;;;;;;;;4991510;28;20018;-86
2023/12/25 10:08:36;;;;;;;1.20;0.50;;;;;;;;;;4982257;28;20056;-85
2023/12/25 10:11:02;;;;;;;0.80;0.50;;;;;;;;;;4983531;28;20097;-86
2023/12/25 10:13:28;;;;;;;2.70;0.60;;;;;;;;;;4993016;28;20124;-84
2023/12/25 10:15:53;;;;;;;2.72;0.60;;;;;;;;;;4975256;28;20061;-85
2023/12/25 10:18:19;;;;;;;4.70;0.50;;;;;;;;;;4989471;28;20092;-85
2023/12/25 10:20:57;;;;;;;2.72;1.20;;;;;;;;;;4990419;28;20458;-86
2023/12/25 10:23:29;;;;;;;0.82;0.60;;;;;;;;;;4982646;28;20023;-85
2023/12/25 10:25:55;;;;;;;1.38;0.70;;;;;;;;;;4992760;28;20060;-85
2023/12/25 10:28:24;;;;;;;0.97;0.50;;;;;;;;;;4979945;28;20114;-84
2023/12/25 10:30:57;;;;;;;3.40;0.60;;;;;;;;;;4992041;28;20019;-86
2023/12/25 10:33:22;;;;;;;1.13;0.70;;;;;;;;;;4991679;28;20065;-85
2023/12/25 10:36:00;;;;;;;1.00;0.60;;;;;;;;;;4990968;28;20050;-85
2023/12/25 10:38:25;;;;;;;0.80;0.43;;;;;;;;;;4992309;28;20014;-85
2023/12/25 10:40:50;;;;;;;1.27;0.50;;;;;;;;;;4979593;28;20363;-86
2023/12/25 10:43:16;;;;;;;2.83;0.63;;;;;;;;;;4989016;28;20010;-86
2023/12/25 10:45:41;;;;;;;2.17;0.90;;;;;;;;;;4993125;28;20034;-84
2023/12/25 10:48:09;;;;;;;1.60;1.20;;;;;;;;;;4991532;28;20278;-85
2023/12/25 10:50:36;;;;;;;0.80;0.80;;;;;;;;;;4988472;28;20034;-84
2023/12/25 10:53:03;;;;;;;3.47;1.07;;;;;;;;;;4973194;28;20399;-83
2023/12/25 10:55:35;;;;;;;5.97;1.00;;;;;;;;;;4992274;28;20025;-83
2023/12/25 10:58:02;;;;;;;1.65;0.90;;;;;;;;;;4991468;28;20034;-85
2023/12/25 11:00:28;;;;;;;2.17;0.95;;;;;;;;;;4989182;28;20049;-84
2023/12/25 11:02:55;;;;;;;3.80;0.93;;;;;;;;;;4991415;28;20390;-83
2023/12/25 11:05:21;;;;;;;2.63;0.90;;;;;;;;;;4990272;28;20041;-83
2023/12/25 11:07:46;;;;;;;2.00;0.97;;;;;;;;;;4989748;28;20269;-83
2023/12/25 11:10:12;;;;;;;3.73;1.33;;;;;;;;;;4974811;28;20544;-84
2023/12/25 11:12:38;;;;;;;4.97;1.42;;;;;;;;;;4991181;28;20058;-85
2023/12/25 11:15:03;;;;;;;1.92;1.50;;;;;;;;;;4972878;28;20149;-84
2023/12/25 11:17:31;;;;;;;3.03;1.70;;;;;;;;;;4987785;28;20050;-83
2023/12/25 11:19:57;;;;;;;5.13;1.80;;;;;;;;;;4991428;28;20129;-84
2023/12/25 11:22:28;;;;;;;2.27;2.00;;;;;;;;;;4989381;28;20110;-85
2023/12/25 11:24:53;;;;;;;1.88;1.73;;;;;;;;;;4955397;28;20382;-84
2023/12/25 11:27:19;;;;;;;6.90;1.87;;;;;;;;;;4981595;28;20019;-84
2023/12/25 11:29:44;;;;;;;5.38;2.00;;;;;;;;;;4989374;28;20568;-85
2023/12/25 11:32:11;;;;;;;1.70;1.60;;;;;;;;;;4989646;28;20049;-85
2023/12/25 11:34:40;;;;;;;3.50;1.70;;;;;;;;;;4961151;28;20505;-85
2023/12/25 11:37:16;;;;;;;3.17;1.67;;;;;;;;;;4977959;28;20466;-86
2023/12/25 11:39:47;;;;;;;7.45;1.73;;;;;;;;;;4987517;28;20494;-85
2023/12/25 11:42:13;;;;;;;3.20;1.80;;;;;;;;;;4988658;28;20023;-84
2023/12/25 11:44:38;;;;;;;4.60;1.70;;;;;;;;;;4990403;28;20309;-85
2023/12/25 11:47:03;;;;;;;6.20;1.70;;;;;;;;;;4972859;28;20022;-84
2023/12/25 11:49:31;;;;;;;4.13;1.13;;;;;;;;;;4973175;28;20022;-86
2023/12/25 11:51:58;;;;;;;3.03;1.48;;;;;;;;;;4987166;28;20030;-86
2023/12/25 11:54:33;;;;;;;2.88;1.65;;;;;;;;;;4989381;28;20030;-85
2023/12/25 11:57:02;;;;;;;4.60;1.70;;;;;;;;;;4990083;28;20109;-85
2023/12/25 11:59:28;;;;;;;4.70;1.98;;;;;;;;;;4973376;28;20038;-85
2023/12/25 12:01:54;;;;;;;4.75;1.75;;;;;;;;;;4971952;28;20438;-85
2023/12/25 12:04:19;;;;;;;3.60;1.30;;;;;;;;;;4992289;28;20031;-85
2023/12/25 12:06:44;;;;;;;5.83;1.40;;;;;;;;;;4972760;28;20029;-85
2023/12/25 12:09:09;;;;;;;2.03;1.10;;;;;;;;;;4990323;28;20041;-85
2023/12/25 12:11:35;;;;;;;1.30;0.87;;;;;;;;;;4988252;28;20033;-86
2023/12/25 12:14:02;;;;;;;2.67;1.20;;;;;;;;;;4971934;28;20069;-86
2023/12/25 12:16:27;;;;;;;3.50;1.10;;;;;;;;;;4973012;28;20048;-86
2023/12/25 12:18:53;;;;;;;2.47;0.67;;;;;;;;;;4972554;28;20022;-86
2023/12/25 12:21:18;;;;;;;4.00;0.70;;;;;;;;;;4971300;28;20153;-86
2023/12/25 12:23:43;;;;;;;2.97;0.80;;;;;;;;;;4990553;28;20022;-86
2023/12/25 12:26:12;;;;;;;2.20;0.60;;;;;;;;;;4988735;28;20037;-86
2023/12/25 12:28:38;;;;;;;0.70;0.60;;;;;;;;;;4989306;28;20033;-85
2023/12/25 12:31:03;;;;;;;2.20;0.60;;;;;;;;;;4989370;28;20030;-86
2023/12/25 12:33:28;;;;;;;0.80;0.80;;;;;;;;;;4990419;28;20346;-86
2023/12/25 12:35:53;;;;;;;1.40;0.80;;;;;;;;;;4989230;28;20042;-86
2023/12/25 12:38:19;;;;;;;1.53;0.90;;;;;;;;;;4989259;28;20022;-86
2023/12/25 12:40:45;;;;;;;1.10;0.90;;;;;;;;;;4989105;28;20587;-86
2023/12/25 12:43:11;;;;;;;1.70;0.80;;;;;;;;;;4987576;28;20022;-86
2023/12/25 12:45:37;;;;;;;1.45;1.20;;;;;;;;;;4990279;28;20037;-86
2023/12/25 12:48:03;;;;;;;2.00;0.60;;;;;;;;;;4972714;28;20506;-86
2023/12/25 12:50:28;;;;;;;1.40;0.98;;;;;;;;;;4989623;28;20022;-86
2023/12/25 12:52:53;;;;;;;3.23;0.90;;;;;;;;;;4990474;28;20556;-87
2023/12/25 12:55:19;;;;;;;3.37;0.80;;;;;;;;;;4988658;28;20045;-85
2023/12/25 12:57:44;;;;;;;2.90;0.70;;;;;;;;;;4990340;28;20022;-85
2023/12/25 13:00:09;;;;;;;3.07;0.80;;;;;;;;;;4987975;28;20030;-85
2023/12/25 13:02:38;;;;;;;4.53;0.80;;;;;;;;;;4990557;28;20432;-86
2023/12/25 13:05:03;;;;;;;2.60;0.70;;;;;;;;;;4990418;28;20050;-85
2023/12/25 13:07:29;;;;;;;3.25;0.70;;;;;;;;;;4994181;28;20069;-86
2023/12/25 13:09:54;;;;;;;5.00;0.87;;;;;;;;;;4993159;28;20373;-85
2023/12/25 13:12:19;;;;;;;4.40;1.17;;;;;;;;;;4992732;28;20037;-85
2023/12/25 13:14:45;;;;;;;3.87;1.00;;;;;;;;;;4992674;28;20026;-85
2023/12/25 13:17:10;;;;;;;6.93;1.53;;;;;;;;;;4993401;28;20046;-86
2023/12/25 13:19:35;;;;;;;3.30;1.10;;;;;;;;;;4993705;28;20301;-85
2023/12/25 13:22:01;;;;;;;3.80;1.10;;;;;;;;;;4993040;28;20098;-84
2023/12/25 13:24:26;;;;;;;4.13;1.27;;;;;;;;;;4993237;28;20026;-85
2023/12/25 13:26:51;;;;;;;5.07;1.40;;;;;;;;;;4993530;28;20373;-85
2023/12/25 13:29:17;;;;;;;4.50;1.10;;;;;;;;;;4993516;28;20049;-85
2023/12/25 13:31:42;;;;;;;8.80;1.37;;;;;;;;;;4992313;28;20030;-85
2023/12/25 13:34:07;;;;;;;6.33;1.17;;;;;;;;;;4992972;28;20028;-85
2023/12/25 13:36:32;;;;;;;6.63;1.30;;;;;;;;;;4994003;28;20053;-85
2023/12/25 13:38:57;;;;;;;4.70;1.40;;;;;;;;;;4992606;28;20046;-84
2023/12/25 13:41:23;;;;;;;3.80;1.10;;;;;;;;;;4992542;28;20019;-85
2023/12/25 13:43:48;;;;;;;3.80;1.23;;;;;;;;;;4993535;28;20038;-85
2023/12/25 13:46:14;;;;;;;6.43;1.48;;;;;;;;;;4992688;28;20053;-84
2023/12/25 13:48:39;;;;;;;9.37;1.83;;;;;;;;;;4992286;28;20045;-84
2023/12/25 13:51:04;;;;;;;8.93;1.70;;;;;;;;;;4991419;28;20033;-83
2023/12/25 13:53:29;;;;;;;5.77;1.37;;;;;;;;;;4991922;28;20026;-84
2023/12/25 13:55:55;;;;;;;4.73;1.17;;;;;;;;;;4992587;28;20018;-85
2023/12/25 13:58:20;;;;;;;3.40;1.30;;;;;;;;;;4992965;28;20026;-85
2023/12/25 14:00:45;;;;;;;4.77;1.10;;;;;;;;;;4992257;28;20022;-85
2023/12/25 14:03:10;;;;;;;4.70;1.50;;;;;;;;;;4992117;28;20014;-84
2023/12/25 14:05:36;;;;;;;3.08;1.20;;;;;;;;;;4993137;28;20053;-83
2023/12/25 14:08:01;;;;;;;6.43;1.60;;;;;;;;;;4992333;28;20018;-83
2023/12/25 14:10:28;;;;;;;5.13;1.20;;;;;;;;;;4992645;28;20094;-84
2023/12/25 14:12:53;;;;;;;6.07;1.35;;;;;;;;;;5013221;22;20048;-84
2023/12/25 14:15:26;;;;;;;2.58;1.10;;;;;;;;;;4994427;28;20022;-84
2023/12/25 14:18:03;;;;;;;4.35;1.20;;;;;;;;;;4991424;28;20030;-84
2023/12/25 14:20:29;;;;;;;3.27;1.37;;;;;;;;;;4991759;28;20085;-83
2023/12/25 14:22:54;;;;;;;3.95;1.50;;;;;;;;;;4991464;28;20038;-84
2023/12/25 14:25:19;;;;;;;3.07;1.50;;;;;;;;;;4992016;28;20501;-83
2023/12/25 14:27:45;;;;;;;5.03;1.50;;;;;;;;;;4992131;28;20022;-85
2023/12/25 14:30:10;;;;;;;6.73;2.63;;;;;;;;;;4991416;28;20028;-83
2023/12/25 14:32:36;;;;;;;10.00;5.57;;;;;;;;;;4991610;28;20093;-85
2023/12/25 14:35:01;;;;;;;8.27;4.00;;;;;;;;;;4989753;28;20478;-86